Flight Track Log - Related Links

Times and Time Zones

All times are in EST time to prevent confusion due to time zone crossing. See the AWI3704 flight status page for this flight to view local times or setup timezone preferences in your user account.

Time Position Orientation Groundspeed Altitude Reporting Facility
EST Latitude Longitude Course Direction KTS MPH feet Rate Location/Type
Tue 07:15:32 AM 34.3622 -77.9142 22° Northeast 224 258 3,400  Level Washington Center
Tue 07:16:00 AM 34.5546 -77.7778 14° North  Level Estimated
Tue 07:16:32 AM 34.4294 -77.8908 16° North 235 270 5,400  Level Washington Center
Tue 07:17:00 AM 34.6535 -77.7561 10° North  Level FlightAware Approximate
Tue 07:17:30 AM 34.5050 -77.8628 17° North 259 298 7,400  Level Washington Center
Tue 07:18:00 AM 34.7478 -77.7138 North  Level Estimated
Tue 07:18:30 AM 34.5847 -77.8372 15° North 282 325 9,500  Level Washington Center
Tue 07:19:00 AM 34.8422 -77.6714 13° North  Level Estimated
Tue 07:19:31 AM 34.6689 -77.8067 17° North 293 337 11,000  Level Washington Center
Tue 07:20:00 AM 34.9365 -77.6289 22° Northeast  Level Estimated
Tue 07:20:32 AM 34.7531 -77.7608 24° Northeast 307 353 12,900  Level Washington Center
Tue 07:21:32 AM 34.8397 -77.7000 30° Northeast 327 376 15,100 2,186 Climbing Washington Center
Tue 07:22:30 AM 34.9283 -77.6389 29° Northeast 345 397 17,200 1,881 Climbing Washington Center
Tue 07:23:30 AM 35.0192 -77.5778 29° Northeast 359 413 18,800 1,835 Climbing Washington Center
Tue 07:24:31 AM 35.1014 -77.5214 29° Northeast 369 425 20,900 1,785 Climbing Washington Center
Tue 07:25:31 AM 35.1942 -77.4603 28° Northeast 374 430 22,400 1,500 Climbing Washington Center
Tue 07:26:31 AM 35.2892 -77.3961 29° Northeast 374 430 23,900 1,289 Climbing Washington Center
Tue 07:27:32 AM 35.3572 -77.2983 50° Northeast 374 430 25,000 1,160 Climbing Washington Center
Tue 07:28:30 AM 35.3758 -77.1536 81° East 367 422 26,200 1,000 Climbing Washington Center
Tue 07:29:32 AM 35.3903 -77.0086 83° East 394 453 27,000 393 Climbing Washington Center
Tue 07:30:32 AM 35.4086 -76.8536 82° East 431 496 27,000  Level Washington Center
Tue 07:31:30 AM 35.4272 -76.6728 83° East 462 532 27,000  Level Washington Center
Tue 07:32:31 AM 35.4431 -76.5175 83° East 469 540 27,000  Level Washington Center
Tue 07:33:32 AM 35.4628 -76.3775 80° East 446 513 27,000  Level Washington Center
Tue 07:34:32 AM 35.4803 -76.2272 82° East 436 502 27,000  Level Washington Center
Tue 07:35:30 AM 35.4997 -76.0819 81° East 436 502 27,000  Level Washington Center
Tue 07:36:31 AM 35.5233 -75.9342 79° East 441 507 27,000 -49 Level Washington Center
Tue 07:37:32 AM 35.6153 -75.8578 34° Northeast 364 419 26,900  Descending Washington Center
Tue 07:38:32 AM 35.7153 -75.8811 349° North 311 358 27,000 51 Climbing Washington Center
Tue 07:39:30 AM 35.8114 -75.9097 346° North 318 366 27,000  Level Washington Center
Tue 07:40:31 AM 35.9072 -75.9331 349° North 333 383 27,000  Level Washington Center
Tue 07:41:32 AM 36.0031 -75.9617 346° North 345 397 27,000  Level Washington Center
Tue 07:42:32 AM 36.1033 -75.9775 353° North 356 410 27,000  Level Washington Center
Tue 07:43:30 AM 36.2161 -75.9472 12° North 368 423 27,000  Level Washington Center
Tue 07:44:30 AM 36.3369 -75.9169 11° North 405 466 27,000  Level Washington Center
Tue 07:45:31 AM 36.4561 -75.8864 12° North 427 491 27,000  Level Washington Center
Tue 07:46:32 AM 36.5750 -75.8531 13° North 432 497 27,000  Level Washington Center
Tue 07:47:30 AM 36.6942 -75.8225 12° North 432 497 27,000  Level Washington Center
Tue 07:48:31 AM 36.8131 -75.7917 12° North 432 497 27,000  Level Washington Center
Tue 07:49:31 AM 36.9319 -75.7633 11° North 432 497 27,000  Level Washington Center
Tue 07:50:32 AM 37.0406 -75.7350 12° North 432 497 27,000  Level Washington Center
Tue 07:51:32 AM 37.1572 -75.7039 12° North 432 497 27,000 -559 Level Washington Center
Tue 07:52:30 AM 37.2764 -75.6728 12° North 427 491 25,900 -1,322 Descending Washington Center
Tue 07:53:30 AM 37.3953 -75.6414 12° North 432 497 24,400 -942 Descending Washington Center
Tue 07:54:31 AM 37.5078 -75.6153 10° North 427 491 24,000 -197 Descending Washington Center
Tue 07:55:32 AM 37.6225 -75.5814 13° North 416 479 24,000 -202 Level Washington Center
Tue 07:56:30 AM 37.7353 -75.5497 13° North 410 472 23,600 -857 Descending Washington Center
Tue 07:57:31 AM 37.8497 -75.5233 10° North 410 472 22,300 -1,230 Descending Washington Center
Tue 07:58:32 AM 37.9603 -75.4969 11° North 410 472 21,100 -1,210 Descending Washington Center
Tue 07:59:30 AM 38.0667 -75.4547 17° North 405 466 19,900 -1,160 Descending Washington Center
Tue 08:00:31 AM 38.1689 -75.3964 24° Northeast 400 460 18,800 -1,082 Descending Washington Center
Tue 08:01:32 AM 38.2686 -75.3325 27° Northeast 400 460 17,700 -1,190 Descending Washington Center
Tue 08:02:32 AM 38.3750 -75.2658 26° Northeast 395 455 16,400 -1,271 Descending Washington Center
Tue 08:03:30 AM 38.4728 -75.2044 26° Northeast 390 449 15,200 -706 Descending Washington Center
Tue 08:04:31 AM 38.5706 -75.1428 26° Northeast 384 442 15,000 -98 Descending Washington Center
Tue 08:05:32 AM 38.6661 -75.0758 29° Northeast 384 442 15,000 -50 Level Washington Center
Tue 08:06:30 AM 38.7597 -75.0192 25° Northeast 384 442 14,900  Descending Washington Center
Tue 08:07:31 AM 38.8553 -74.9544 28° Northeast 384 442 15,000  Climbing Washington Center
Tue 08:08:31 AM 38.9467 -74.8950 27° Northeast 384 442 14,900 -50 Descending Washington Center
Tue 08:09:32 AM 39.0211 -74.8142 40° Northeast 359 413 14,900 -496 Level Washington Center
Tue 08:10:32 AM 39.0831 -74.7119 52° Northeast 354 407 13,900 -559 Descending Washington Center
Tue 08:11:30 AM 39.1469 -74.6119 50° Northeast 348 400 13,800 -153 Descending Washington Center
Tue 08:12:30 AM 39.2106 -74.5042 53° Northeast 363 418 13,600 -645 Descending Washington Center
Tue 08:13:31 AM 39.2658 -74.4119 52° Northeast 370 426 12,500 -893 Descending Washington Center
Tue 08:14:31 AM 39.3403 -74.3597 28° Northeast 335 386 11,800 -350 Descending Washington Center
Tue 08:15:31 AM 39.3578 -74.4294 288° West 172 198 11,800 -454 Level Washington Center
Tue 08:16:30 AM 39.3083 -74.4919 224° Southwest 123 142 10,900 -950 Descending Washington Center
Tue 08:17:31 AM 39.2800 -74.5700 245° Southwest 181 208 9,900 -885 Descending Washington Center
Tue 08:18:32 AM 39.3283 -74.6472 309° West 208 239 9,100 -555 Descending Washington Center
Tue 08:19:30 AM 39.3747 -74.7164 311° West 233 268 8,800 -33 Descending Washington Center
Tue 08:21:32 AM 39.4667 -74.8500 312° West 252 290 9,000 64 Climbing Philadelphia TRACON
Tue 08:22:38 AM 39.5167 -74.9333 308° West 252 290 9,000  Level Philadelphia TRACON
Tue 08:23:32 AM 39.5667 -74.9833 322° Northwest 264 304 9,000 -500 Level Philadelphia TRACON
Tue 08:24:38 AM 39.6000 -75.0667 297° West 241 277 8,000 -500 Descending Philadelphia TRACON
Tue 08:25:32 AM 39.5667 -75.1333 237° Southwest 246 283 8,000 -421 Level Philadelphia TRACON
Tue 08:26:32 AM 39.5667 -75.2167 270° West 240 276 7,200 -950 Descending Philadelphia TRACON
Tue 08:27:32 AM 39.6000 -75.3000 297° West 234 269 6,100 -545 Descending Philadelphia TRACON
Tue 08:28:44 AM 39.6167 -75.3833 285° West 186 214 6,000 -50 Descending Philadelphia TRACON
Tue 08:29:32 AM 39.6333 -75.4333 293° West 223 257 6,000  Level Philadelphia TRACON
Tue 08:30:38 AM 39.6833 -75.5167 308° West 242 278 6,000  Level Philadelphia TRACON
Tue 08:31:38 AM 39.7000 -75.5833 288° West 252 290 6,000  Level Philadelphia TRACON
Tue 08:32:38 AM 39.7333 -75.6667 298° West 245 282 6,000  Level Philadelphia TRACON
Tue 08:33:38 AM 39.7667 -75.7500 298° West 240 276 6,000  Level Philadelphia TRACON
Tue 08:34:38 AM 39.8000 -75.8167 303° West 238 274 6,000  Level Philadelphia TRACON
Tue 08:36:00 AM 39.8525 -75.9410 299° West  Level FlightAware Approximate
Tue 08:43:00 AM 40.1125 -76.5858 297° West  Level FlightAware Approximate
Tue 08:44:00 AM 40.1642 -76.7023 298° West  Level FlightAware Approximate

Login

Don't have an account? Register now (free) for customized features, flight alerts, and more!